Terminal Aerodrome Forecast
Issued by NWS Sterling, VA

Current Version | Previous Version | Graphics & Text | Print | Product List | Glossary On
Versions: 1 2 3 4 5 6 7 8 9 10 11 12 13 14
000
FTUS41 KLWX 161720
TAFMRB
TAF
KMRB 161720Z 1618/1718 16010G18KT P6SM BKN130
     FM162300 18006KT P6SM SCT050 OVC090
     FM170400 17004KT 6SM -SHRA SCT025 OVC050
     FM171000 17004KT P6SM SCT025 OVC050
     FM171400 24004KT P6SM OVC050=

USA.gov is the U.S. government's official web portal to all federal, state and local government web resources and services.